createdAt,value
2018-02-09T00:02:03.236Z,27.67
2018-02-09T00:04:32.189Z,33.53
2018-02-09T00:07:01.007Z,34.08
2018-02-09T00:09:29.809Z,32.75
2018-02-09T00:11:58.673Z,27.67
2018-02-09T00:14:27.549Z,31.15
2018-02-09T00:16:56.377Z,31.23
2018-02-09T00:19:25.193Z,28.67
2018-02-09T00:21:54.057Z,29.85
2018-02-09T00:24:22.883Z,26.48
2018-02-09T00:26:51.713Z,28.12
2018-02-09T00:29:20.528Z,33.90
2018-02-09T00:31:49.464Z,32.78
2018-02-09T00:34:18.285Z,34.13
2018-02-09T00:36:47.092Z,31.58
2018-02-09T00:39:15.964Z,30.20
2018-02-09T00:41:44.772Z,30.95
2018-02-09T00:44:13.632Z,29.35
2018-02-09T00:46:42.534Z,32.33
2018-02-09T00:49:11.353Z,31.73
2018-02-09T00:51:40.193Z,23.45
2018-02-09T00:54:09.023Z,28.98
2018-02-09T00:56:37.844Z,29.30
2018-02-09T00:59:06.670Z,27.17
2018-02-09T01:01:35.504Z,25.48
2018-02-09T01:04:04.312Z,31.60
2018-02-09T01:06:33.225Z,32.22
2018-02-09T01:09:02.118Z,49.38
2018-02-09T01:11:30.960Z,21.40
2018-02-09T01:13:59.813Z,28.80
2018-02-09T01:16:28.647Z,43.17
2018-02-09T01:18:57.477Z,41.45
2018-02-09T01:21:26.297Z,41.10
2018-02-09T01:23:55.144Z,32.42
2018-02-09T01:26:23.974Z,22.85
2018-02-09T01:28:52.821Z,25.80
2018-02-09T01:31:21.625Z,33.88
2018-02-09T01:33:50.460Z,24.95
2018-02-09T01:36:19.316Z,30.45
2018-02-09T01:38:48.266Z,36.40
2018-02-09T01:41:17.160Z,26.23
2018-02-09T01:43:45.986Z,30.58
2018-02-09T01:46:14.885Z,27.85
2018-02-09T01:48:43.697Z,31.15
2018-02-09T01:51:12.770Z,31.40
2018-02-09T01:53:41.604Z,32.25
2018-02-09T01:56:10.432Z,30.17
2018-02-09T01:58:39.268Z,30.40
2018-02-09T02:01:08.076Z,32.55
2018-02-09T02:03:36.919Z,28.25
2018-02-09T02:06:05.744Z,32.60
2018-02-09T02:08:34.596Z,36.40
2018-02-09T02:11:03.408Z,33.38
2018-02-09T02:13:32.245Z,34.95
2018-02-09T02:16:01.130Z,32.00
2018-02-09T02:18:29.932Z,27.95
2018-02-09T02:20:58.806Z,33.97
2018-02-09T02:23:27.614Z,31.48
2018-02-09T02:25:56.460Z,32.60
2018-02-09T02:28:25.289Z,50.30
2018-02-09T02:30:54.098Z,35.83
2018-02-09T02:33:22.933Z,33.10
2018-02-09T02:35:51.851Z,38.38
2018-02-09T02:38:20.705Z,25.77
2018-02-09T02:40:49.505Z,28.48
2018-02-09T02:43:18.404Z,29.80
2018-02-09T02:45:47.160Z,31.27
2018-02-09T02:48:16.005Z,30.30
2018-02-09T02:50:44.826Z,32.33
2018-02-09T02:53:13.637Z,31.12
2018-02-09T02:55:42.475Z,29.30
2018-02-09T02:58:11.313Z,31.35
2018-02-09T03:00:40.156Z,32.28
2018-02-09T03:03:09.005Z,29.85
2018-02-09T03:05:37.823Z,29.65
2018-02-09T03:08:06.628Z,30.67
2018-02-09T03:10:35.461Z,29.17
2018-02-09T03:13:04.275Z,39.03
2018-02-09T03:15:33.185Z,30.25
2018-02-09T03:18:02.000Z,32.28
2018-02-09T03:20:30.835Z,32.15
2018-02-09T03:22:59.662Z,30.92
2018-02-09T03:25:28.477Z,25.17
2018-02-09T03:27:57.322Z,24.98
2018-02-09T03:30:26.133Z,32.17
2018-02-09T03:32:54.963Z,29.08
2018-02-09T03:35:23.797Z,20.70
2018-02-09T03:37:52.607Z,24.12
2018-02-09T03:40:21.438Z,29.98
2018-02-09T03:42:50.265Z,31.35
2018-02-09T03:45:19.122Z,31.20
2018-02-09T03:47:47.942Z,23.98
2018-02-09T03:50:16.806Z,32.88
2018-02-09T03:52:45.613Z,33.92
2018-02-09T03:55:14.418Z,26.87
2018-02-09T03:57:43.253Z,37.03
2018-02-09T04:00:12.070Z,28.67
2018-02-09T04:02:40.908Z,28.38
2018-02-09T04:05:09.720Z,28.85
2018-02-09T04:07:38.597Z,25.35
2018-02-09T04:10:07.396Z,36.58
2018-02-09T04:12:36.221Z,31.65
2018-02-09T04:15:05.154Z,28.80
2018-02-09T04:17:33.972Z,31.02
2018-02-09T04:20:02.835Z,30.27
2018-02-09T04:22:31.642Z,28.85
2018-02-09T04:25:00.526Z,35.42
2018-02-09T04:27:29.323Z,38.90
2018-02-09T04:29:58.161Z,28.77
2018-02-09T04:32:26.986Z,30.52
2018-02-09T04:34:55.825Z,24.23
2018-02-09T04:37:24.644Z,25.52
2018-02-09T04:39:53.608Z,29.25
2018-02-09T04:42:22.438Z,34.45
2018-02-09T04:44:51.280Z,24.23
2018-02-09T04:47:20.122Z,34.63
2018-02-09T04:49:48.935Z,31.85
2018-02-09T04:52:17.768Z,29.70
2018-02-09T04:54:46.595Z,29.67
2018-02-09T04:57:15.463Z,28.73
2018-02-09T04:59:44.301Z,29.65
2018-02-09T05:02:13.146Z,27.95
2018-02-09T05:04:41.963Z,29.95
2018-02-09T05:07:10.781Z,29.50
2018-02-09T05:09:39.676Z,27.92
2018-02-09T05:12:08.485Z,32.97
2018-02-09T05:14:37.320Z,28.05
2018-02-09T05:17:06.126Z,25.77
2018-02-09T05:19:34.965Z,24.42
2018-02-09T05:22:03.778Z,31.90
2018-02-09T05:24:32.663Z,28.17
2018-02-09T05:27:01.483Z,27.58
2018-02-09T05:29:30.385Z,29.58
2018-02-09T05:31:59.204Z,29.67
2018-02-09T05:34:28.012Z,27.27
2018-02-09T05:36:57.109Z,27.60
2018-02-09T05:39:25.952Z,24.50
2018-02-09T05:41:54.804Z,27.42
2018-02-09T05:44:23.674Z,28.92
2018-02-09T05:46:52.547Z,28.05
2018-02-09T05:49:21.363Z,23.02
2018-02-09T05:51:50.179Z,28.67
2018-02-09T05:54:19.012Z,23.83
2018-02-09T05:56:47.841Z,35.80
2018-02-09T05:59:16.707Z,25.80
2018-02-09T06:01:45.600Z,27.40
2018-02-09T06:04:14.498Z,30.65
2018-02-09T06:06:43.305Z,28.12
2018-02-09T06:09:12.157Z,20.88
2018-02-09T06:11:41.293Z,32.97
2018-02-09T06:14:10.133Z,24.37
2018-02-09T06:16:38.943Z,27.45
2018-02-09T06:19:07.757Z,28.70
2018-02-09T06:21:36.600Z,29.27
2018-02-09T06:24:05.416Z,29.25
2018-02-09T06:26:34.348Z,27.60
2018-02-09T06:29:03.188Z,27.30
2018-02-09T06:31:32.053Z,28.17
2018-02-09T06:34:00.872Z,21.95
2018-02-09T06:36:29.666Z,33.65
2018-02-09T06:38:58.504Z,25.77
2018-02-09T06:41:27.364Z,27.80
2018-02-09T06:43:56.180Z,25.75
2018-02-09T06:46:24.996Z,23.10
2018-02-09T06:48:53.830Z,29.90
2018-02-09T06:51:22.631Z,30.20
2018-02-09T06:53:51.497Z,28.08
2018-02-09T06:56:20.369Z,28.67
2018-02-09T06:58:49.204Z,30.12
2018-02-09T07:01:18.028Z,23.67
2018-02-09T07:03:46.883Z,22.67
2018-02-09T07:06:15.708Z,23.20
2018-02-09T07:08:44.543Z,25.67
2018-02-09T07:11:13.387Z,29.50
2018-02-09T07:13:42.299Z,25.12
2018-02-09T07:16:11.150Z,24.40
2018-02-09T07:18:39.985Z,25.42
2018-02-09T07:21:08.823Z,27.23
2018-02-09T07:23:37.655Z,24.48
2018-02-09T07:26:06.461Z,23.38
2018-02-09T07:28:35.303Z,23.73
2018-02-09T07:31:04.137Z,24.42
2018-02-09T07:33:32.994Z,25.90
2018-02-09T07:36:01.863Z,25.00
2018-02-09T07:38:30.672Z,24.73
2018-02-09T07:40:59.528Z,25.77
2018-02-09T07:43:28.381Z,25.42
2018-02-09T07:45:57.217Z,26.00
2018-02-09T07:48:26.030Z,24.85
2018-02-09T07:50:54.916Z,25.15
2018-02-09T07:53:23.732Z,28.12
2018-02-09T07:55:52.576Z,26.55
2018-02-09T07:58:21.435Z,23.45
2018-02-09T08:00:50.294Z,26.40
2018-02-09T08:03:19.182Z,25.58
2018-02-09T08:05:47.994Z,25.27
2018-02-09T08:08:16.819Z,25.77
2018-02-09T08:10:45.647Z,26.58
2018-02-09T08:13:14.473Z,25.45
2018-02-09T08:15:43.296Z,27.27
2018-02-09T08:18:12.157Z,26.92
2018-02-09T08:20:40.988Z,20.92
2018-02-09T08:23:09.825Z,22.30
2018-02-09T08:25:38.692Z,21.40
2018-02-09T08:28:07.518Z,21.87
2018-02-09T08:30:36.386Z,23.60
2018-02-09T08:33:05.209Z,20.20
2018-02-09T08:35:34.030Z,19.90
2018-02-09T08:38:02.893Z,19.42
2018-02-09T08:40:31.716Z,17.73
2018-02-09T08:43:00.594Z,19.40
2018-02-09T08:45:29.432Z,17.83
2018-02-09T08:47:58.327Z,18.80
2018-02-09T08:50:27.209Z,18.62
2018-02-09T08:52:56.041Z,18.55
2018-02-09T08:55:24.853Z,18.45
2018-02-09T08:57:53.799Z,18.65
2018-02-09T09:00:22.621Z,18.50
2018-02-09T09:02:51.438Z,19.00
2018-02-09T09:05:20.291Z,20.45
2018-02-09T09:07:49.091Z,20.50
2018-02-09T09:10:18.810Z,19.02
2018-02-09T09:12:47.710Z,18.48
2018-02-09T09:15:16.581Z,20.37
2018-02-09T09:17:45.392Z,20.45
2018-02-09T09:20:14.228Z,20.77
2018-02-09T09:22:43.066Z,20.67
2018-02-09T09:25:11.899Z,18.50
2018-02-09T09:27:40.852Z,20.52
2018-02-09T09:30:09.655Z,19.10
2018-02-09T09:32:38.496Z,20.42
2018-02-09T09:35:07.315Z,19.65
2018-02-09T09:37:36.188Z,18.70
2018-02-09T09:40:04.995Z,20.25
2018-02-09T09:42:33.852Z,22.35
2018-02-09T09:45:02.705Z,22.17
2018-02-09T09:47:31.534Z,21.67
2018-02-09T09:50:00.362Z,23.58
2018-02-09T09:52:29.203Z,23.12
2018-02-09T09:54:58.032Z,22.37
2018-02-09T09:57:26.882Z,24.45
2018-02-09T09:59:55.775Z,25.20
2018-02-09T10:02:30.552Z,25.05
2018-02-09T10:04:59.629Z,23.52
2018-02-09T10:07:28.523Z,24.50
2018-02-09T10:09:57.378Z,23.60
2018-02-09T10:12:26.269Z,22.13
2018-02-09T10:14:55.091Z,24.30
2018-02-09T10:17:23.970Z,22.73
2018-02-09T10:19:52.789Z,21.20
2018-02-09T10:22:21.708Z,23.75
2018-02-09T10:24:50.777Z,22.52
2018-02-09T10:27:19.744Z,22.30
2018-02-09T10:29:48.577Z,22.17
2018-02-09T10:32:17.405Z,22.98
2018-02-09T10:34:46.264Z,21.05
2018-02-09T10:37:15.105Z,22.30
2018-02-09T10:39:43.986Z,22.80
2018-02-09T10:42:12.809Z,22.87
2018-02-09T10:44:41.657Z,22.40
2018-02-09T10:47:10.510Z,18.85
2018-02-09T10:49:39.337Z,20.98
2018-02-09T10:52:08.265Z,21.02
2018-02-09T10:54:37.067Z,18.95
2018-02-09T10:57:05.900Z,22.40
2018-02-09T10:59:34.724Z,19.65
2018-02-09T11:02:03.582Z,20.75
2018-02-09T11:04:32.402Z,21.37
2018-02-09T11:07:01.269Z,22.00
2018-02-09T11:09:31.038Z,21.83
2018-02-09T11:12:01.847Z,20.42
2018-02-09T11:14:30.664Z,21.80
2018-02-09T11:16:59.491Z,22.05
2018-02-09T11:19:28.372Z,23.23
2018-02-09T11:21:57.208Z,21.50
2018-02-09T11:24:26.101Z,20.55
2018-02-09T11:26:55.410Z,19.27
2018-02-09T11:29:24.258Z,21.48
2018-02-09T11:31:53.150Z,21.23
2018-02-09T11:34:21.993Z,20.15
2018-02-09T11:36:50.812Z,19.08
2018-02-09T11:39:19.685Z,21.50
2018-02-09T11:41:48.502Z,23.62
2018-02-09T11:44:17.330Z,18.87
2018-02-09T11:46:46.182Z,22.60
2018-02-09T11:49:14.994Z,20.88
2018-02-09T11:51:43.847Z,20.73
2018-02-09T11:54:12.709Z,24.12
2018-02-09T11:56:41.568Z,21.83
2018-02-09T11:59:10.387Z,24.23
2018-02-09T12:01:39.241Z,22.48
2018-02-09T12:04:08.073Z,20.90
2018-02-09T12:06:36.940Z,19.50
2018-02-09T12:09:05.836Z,20.90
2018-02-09T12:11:34.666Z,20.15
2018-02-09T12:14:03.515Z,22.40
2018-02-09T12:16:32.357Z,20.08
2018-02-09T12:19:01.197Z,21.30
2018-02-09T12:21:30.054Z,21.55
2018-02-09T12:23:58.901Z,19.52
2018-02-09T12:26:27.741Z,16.95
2018-02-09T12:28:56.564Z,19.23
2018-02-09T12:31:25.433Z,20.12
2018-02-09T12:33:54.264Z,19.50
2018-02-09T12:36:23.129Z,18.90
2018-02-09T12:38:51.920Z,21.20
2018-02-09T12:41:20.780Z,18.45
2018-02-09T12:43:49.665Z,17.65
2018-02-09T12:46:18.531Z,19.37
2018-02-09T12:48:47.384Z,22.50
2018-02-09T12:51:16.196Z,19.25
2018-02-09T12:53:45.061Z,20.77
2018-02-09T12:56:13.872Z,19.35
2018-02-09T12:58:42.772Z,20.42
2018-02-09T13:01:11.584Z,20.45
2018-02-09T13:03:40.488Z,21.90
2018-02-09T13:06:09.321Z,19.75
2018-02-09T13:08:38.194Z,18.70
2018-02-09T13:11:07.036Z,21.25
2018-02-09T13:13:35.951Z,18.67
2018-02-09T13:16:04.786Z,19.95
2018-02-09T13:18:39.458Z,19.15
2018-02-09T13:21:08.502Z,18.65
2018-02-09T13:23:43.277Z,20.17
2018-02-09T13:26:12.144Z,19.70
2018-02-09T13:28:46.861Z,20.60
2018-02-09T13:31:15.682Z,19.80
2018-02-09T13:33:44.494Z,19.77
2018-02-09T13:36:15.181Z,22.67
2018-02-09T13:38:44.028Z,19.37
2018-02-09T13:41:12.848Z,20.67
2018-02-09T13:43:41.727Z,21.40
2018-02-09T13:46:10.534Z,22.55
2018-02-09T13:48:39.388Z,22.33
2018-02-09T13:51:08.261Z,20.67
2018-02-09T13:53:37.114Z,20.73
2018-02-09T13:56:05.938Z,21.23
2018-02-09T13:58:34.811Z,21.17
2018-02-09T14:01:03.630Z,20.25
2018-02-09T14:03:32.477Z,20.25
2018-02-09T14:06:01.294Z,23.05
2018-02-09T14:08:30.132Z,21.27
2018-02-09T14:10:58.973Z,19.87
2018-02-09T14:13:27.849Z,22.37
2018-02-09T14:15:56.693Z,22.02
2018-02-09T14:18:25.527Z,20.45
2018-02-09T14:20:54.361Z,20.88
2018-02-09T14:23:23.201Z,19.45
2018-02-09T14:25:52.052Z,20.40
2018-02-09T14:28:20.929Z,21.35
2018-02-09T14:30:49.967Z,22.37
2018-02-09T14:33:18.809Z,23.52
2018-02-09T14:35:47.630Z,22.90
2018-02-09T14:38:16.602Z,22.75
2018-02-09T14:40:45.412Z,31.37
2018-02-09T14:43:14.285Z,21.83
2018-02-09T14:45:43.140Z,21.42
2018-02-09T14:48:12.087Z,24.10
2018-02-09T14:50:40.925Z,22.13
2018-02-09T14:53:09.810Z,20.10
2018-02-09T14:55:38.635Z,20.67
2018-02-09T14:58:07.450Z,18.00
2018-02-09T15:00:36.502Z,20.98
2018-02-09T15:03:05.388Z,22.65
2018-02-09T15:05:34.256Z,23.38
2018-02-09T15:08:03.065Z,22.10
2018-02-09T15:10:31.913Z,19.92
2018-02-09T15:13:00.842Z,21.95
2018-02-09T15:15:29.687Z,20.77
2018-02-09T15:17:58.573Z,19.25
2018-02-09T15:20:28.211Z,23.33
2018-02-09T15:22:57.072Z,21.27
2018-02-09T15:25:26.029Z,21.83
2018-02-09T15:27:54.930Z,20.02
2018-02-09T15:30:23.779Z,19.40
2018-02-09T15:32:52.645Z,22.00
2018-02-09T15:35:21.449Z,20.05
2018-02-09T15:37:50.318Z,19.40
2018-02-09T15:40:19.257Z,20.73
2018-02-09T15:42:48.134Z,20.70
2018-02-09T15:45:16.987Z,22.15
2018-02-09T15:47:45.865Z,22.40
2018-02-09T15:50:14.733Z,20.42
2018-02-09T15:52:43.589Z,22.00
2018-02-09T15:55:12.434Z,23.42
2018-02-09T15:57:41.366Z,22.27
2018-02-09T16:00:10.178Z,20.50
2018-02-09T16:02:39.005Z,19.08
2018-02-09T16:05:07.895Z,17.00
2018-02-09T16:07:36.733Z,22.95
2018-02-09T16:10:05.562Z,19.55
2018-02-09T16:12:34.470Z,18.37
2018-02-09T16:15:03.280Z,19.37
2018-02-09T16:17:32.117Z,20.17
2018-02-09T16:20:00.969Z,17.42
2018-02-09T16:22:29.808Z,21.05
2018-02-09T16:24:58.637Z,20.15
2018-02-09T16:27:27.476Z,20.73
2018-02-09T16:29:56.300Z,21.60
2018-02-09T16:32:25.155Z,18.27
2018-02-09T16:34:53.978Z,17.12
2018-02-09T16:37:22.859Z,20.45
2018-02-09T16:39:51.698Z,20.55
2018-02-09T16:42:20.505Z,20.90
2018-02-09T16:44:49.383Z,19.50
2018-02-09T16:47:18.215Z,20.33
2018-02-09T16:49:47.098Z,17.67
2018-02-09T16:52:15.976Z,19.45
2018-02-09T16:54:44.894Z,21.00
2018-02-09T16:57:13.805Z,16.33
2018-02-09T16:59:42.644Z,19.62
2018-02-09T17:02:11.548Z,20.65
2018-02-09T17:04:40.368Z,24.05
2018-02-09T17:07:09.264Z,20.92
2018-02-09T17:09:38.102Z,21.02
2018-02-09T17:12:07.028Z,19.87
2018-02-09T17:14:35.882Z,20.33
2018-02-09T17:17:04.724Z,19.92
2018-02-09T17:19:33.570Z,19.90
2018-02-09T17:22:02.448Z,25.85
2018-02-09T17:24:31.352Z,17.90
2018-02-09T17:27:00.299Z,20.62
2018-02-09T17:29:29.184Z,18.98
2018-02-09T17:31:58.022Z,21.02
2018-02-09T17:34:26.879Z,20.88
2018-02-09T17:36:55.690Z,19.95
2018-02-09T17:39:24.585Z,18.73
2018-02-09T17:41:53.393Z,16.35
2018-02-09T17:44:22.253Z,20.58
2018-02-09T17:46:51.114Z,19.00
2018-02-09T17:49:19.933Z,19.73
2018-02-09T17:51:48.769Z,21.60
2018-02-09T17:54:17.596Z,19.70
2018-02-09T17:56:46.455Z,17.92
2018-02-09T17:59:15.293Z,17.62
2018-02-09T18:01:44.193Z,20.02
2018-02-09T18:04:13.001Z,20.80
2018-02-09T18:06:41.841Z,23.00
2018-02-09T18:09:10.702Z,23.40
2018-02-09T18:11:39.569Z,22.55
2018-02-09T18:14:08.428Z,19.83
2018-02-09T18:16:37.268Z,31.87
2018-02-09T18:19:06.148Z,21.52
2018-02-09T18:21:35.015Z,21.37
2018-02-09T18:24:03.841Z,21.02
2018-02-09T18:26:32.739Z,19.73
2018-02-09T18:29:01.576Z,24.75
2018-02-09T18:31:30.413Z,24.27
2018-02-09T18:33:59.343Z,25.30
2018-02-09T18:36:28.188Z,17.45
2018-02-09T18:38:57.050Z,37.53
2018-02-09T18:41:25.925Z,26.98
2018-02-09T18:43:54.833Z,25.12
2018-02-09T18:46:23.696Z,22.85
2018-02-09T18:48:52.569Z,20.77
2018-02-09T18:51:21.411Z,22.02
2018-02-09T18:53:50.327Z,21.83
2018-02-09T18:56:19.206Z,17.27
2018-02-09T18:58:48.045Z,21.10
2018-02-09T19:01:16.965Z,24.27
2018-02-09T19:03:45.812Z,20.88
2018-02-09T19:06:14.674Z,17.33
2018-02-09T19:08:43.518Z,20.88
2018-02-09T19:11:12.398Z,20.08
2018-02-09T19:13:41.237Z,19.95
2018-02-09T19:16:10.110Z,20.15
2018-02-09T19:18:38.925Z,21.10
2018-02-09T19:21:07.748Z,21.70
2018-02-09T19:23:36.657Z,21.70
2018-02-09T19:26:05.487Z,19.55
2018-02-09T19:28:34.326Z,18.77
2018-02-09T19:31:03.175Z,22.40
2018-02-09T19:33:32.018Z,23.30
2018-02-09T19:36:00.843Z,24.73
2018-02-09T19:38:29.678Z,24.00
2018-02-09T19:40:58.539Z,22.95
2018-02-09T19:43:27.379Z,24.73
2018-02-09T19:45:56.231Z,23.70
2018-02-09T19:48:25.050Z,24.17
2018-02-09T19:50:53.910Z,23.35
2018-02-09T19:53:22.727Z,23.87
2018-02-09T19:55:51.580Z,22.62
2018-02-09T19:58:20.386Z,24.63
2018-02-09T20:00:49.223Z,21.02
2018-02-09T20:03:18.103Z,22.50
2018-02-09T20:05:46.978Z,24.05
2018-02-09T20:08:15.934Z,24.67
2018-02-09T20:10:44.782Z,25.65
2018-02-09T20:13:13.657Z,24.75
2018-02-09T20:15:42.511Z,24.15
2018-02-09T20:18:11.373Z,23.95
2018-02-09T20:20:40.199Z,21.52
2018-02-09T20:23:09.053Z,23.98
2018-02-09T20:25:37.911Z,24.48
2018-02-09T20:28:06.863Z,22.70
2018-02-09T20:30:35.770Z,23.35
2018-02-09T20:33:04.628Z,24.37
2018-02-09T20:35:33.475Z,22.65
2018-02-09T20:38:02.315Z,25.55
2018-02-09T20:40:31.162Z,21.75
2018-02-09T20:43:00.117Z,24.67
2018-02-09T20:45:28.965Z,24.20
2018-02-09T20:47:57.813Z,23.33
2018-02-09T20:50:26.706Z,24.02
2018-02-09T20:52:55.530Z,23.65
2018-02-09T20:55:24.384Z,24.08
2018-02-09T20:57:53.267Z,27.48
2018-02-09T21:00:22.203Z,23.73
2018-02-09T21:02:51.058Z,28.73
2018-02-09T21:05:19.910Z,23.98
2018-02-09T21:07:48.725Z,25.17
2018-02-09T21:10:17.598Z,22.67
2018-02-09T21:12:46.455Z,24.27
2018-02-09T21:15:15.346Z,24.05
2018-02-09T21:17:44.198Z,24.12
2018-02-09T21:20:13.056Z,22.52
2018-02-09T21:22:41.905Z,23.77
2018-02-09T21:25:10.738Z,23.83
2018-02-09T21:27:39.624Z,24.27
2018-02-09T21:30:08.476Z,20.17
2018-02-09T21:32:37.312Z,17.87
2018-02-09T21:35:06.855Z,23.33
2018-02-09T21:37:35.685Z,19.08
2018-02-09T21:40:04.554Z,22.15
2018-02-09T21:42:33.376Z,24.42
2018-02-09T21:45:02.234Z,20.17
2018-02-09T21:47:31.127Z,16.50
2018-02-09T21:49:59.990Z,20.85
2018-02-09T21:52:28.831Z,22.45
2018-02-09T21:54:57.684Z,16.40
2018-02-09T21:57:26.535Z,21.12
2018-02-09T21:59:55.372Z,21.02
2018-02-09T22:02:24.268Z,22.50
2018-02-09T22:04:53.113Z,33.78
2018-02-09T22:07:22.003Z,30.00
2018-02-09T22:09:50.832Z,27.77
2018-02-09T22:12:19.728Z,25.52
2018-02-09T22:14:48.973Z,22.60
2018-02-09T22:17:17.813Z,30.85
2018-02-09T22:19:46.657Z,25.62
2018-02-09T22:22:15.491Z,24.55
2018-02-09T22:24:44.337Z,34.55
2018-02-09T22:27:13.171Z,26.50
2018-02-09T22:29:41.999Z,24.20
2018-02-09T22:32:10.975Z,22.55
2018-02-09T22:34:39.836Z,22.67
2018-02-09T22:37:08.695Z,23.67
2018-02-09T22:39:37.861Z,25.15
2018-02-09T22:42:06.737Z,24.52
2018-02-09T22:44:35.586Z,22.65
2018-02-09T22:47:04.433Z,24.95
2018-02-09T22:49:33.463Z,24.15
2018-02-09T22:52:02.269Z,24.73
2018-02-09T22:54:31.139Z,24.77
2018-02-09T22:56:59.982Z,22.87
2018-02-09T22:59:28.821Z,24.35
2018-02-09T23:01:57.661Z,28.85
2018-02-09T23:04:26.626Z,23.90
2018-02-09T23:06:55.517Z,24.45
2018-02-09T23:09:24.349Z,24.33
2018-02-09T23:11:53.181Z,26.58
2018-02-09T23:14:22.029Z,25.95
2018-02-09T23:16:50.863Z,23.80
2018-02-09T23:19:19.880Z,28.27
2018-02-09T23:21:48.686Z,27.50
2018-02-09T23:24:17.586Z,25.90
2018-02-09T23:26:46.439Z,25.83
2018-02-09T23:29:15.287Z,25.67
2018-02-09T23:31:44.129Z,24.83
2018-02-09T23:34:13.022Z,24.17
2018-02-09T23:36:41.844Z,22.95
2018-02-09T23:39:10.661Z,26.90
2018-02-09T23:41:39.511Z,24.73
2018-02-09T23:44:08.329Z,22.35
2018-02-09T23:46:37.194Z,20.17
2018-02-09T23:49:06.203Z,23.45
2018-02-09T23:51:35.033Z,22.58
2018-02-09T23:54:03.876Z,21.60
2018-02-09T23:56:32.693Z,18.05
2018-02-09T23:59:01.550Z,21.83
